Time,TemperatureF,DewpointF,PressureIn,WindDirection,WindDirectionDegrees,WindSpeedMPH,WindSpeedGustMPH,Humidity,HourlyPrecipIn,Conditions,Clouds,dailyrainin,SoftwareType,DateUTC
2013-02-05 00:14:00,19.6,9.4,29.86,SSW,202,2.2,-999.0,64,-99.99,,,0.00,Acu-Link.com,2013-02-05 05:14:00,
2013-02-05 00:29:00,19.9,9.0,29.86,ENE,67,2.2,-999.0,62,-99.99,,,0.00,Acu-Link.com,2013-02-05 05:29:00,
2013-02-05 00:45:00,19.9,9.4,29.86,South,180,3.2,-999.0,63,-99.99,,,0.00,Acu-Link.com,2013-02-05 05:45:00,
2013-02-05 01:00:00,19.9,9.7,29.86,SSW,202,2.7,-999.0,64,-99.99,,,0.00,Acu-Link.com,2013-02-05 06:00:00,
2013-02-05 01:15:00,19.9,9.7,29.87,WSW,247,1.7,-999.0,64,-99.99,,,0.00,Acu-Link.com,2013-02-05 06:15:00,
2013-02-05 01:30:00,19.9,9.4,29.87,WSW,247,2.7,-999.0,63,-99.99,,,0.00,Acu-Link.com,2013-02-05 06:30:00,
2013-02-05 01:46:00,20.1,9.6,29.86,SW,225,2.2,-999.0,63,-99.99,,,0.00,Acu-Link.com,2013-02-05 06:46:00,
2013-02-05 02:01:00,20.1,9.9,29.88,SW,225,1.7,-999.0,64,-99.99,,,0.00,Acu-Link.com,2013-02-05 07:01:00,
2013-02-05 02:16:00,20.1,9.9,29.87,SW,225,1.7,-999.0,64,-99.99,,,0.00,Acu-Link.com,2013-02-05 07:16:00,
2013-02-05 02:31:00,20.1,9.9,29.87,SW,225,0.0,-999.0,64,-99.99,,,0.00,Acu-Link.com,2013-02-05 07:31:00,
2013-02-05 02:46:00,20.1,10.3,29.87,South,180,1.1,-999.0,65,-99.99,,,0.00,Acu-Link.com,2013-02-05 07:46:00,
2013-02-05 03:02:00,20.1,9.9,29.87,SSW,202,2.7,-999.0,64,-99.99,,,0.00,Acu-Link.com,2013-02-05 08:02:00,
2013-02-05 03:17:00,20.1,10.3,29.88,SSE,157,1.1,-999.0,65,-99.99,,,0.00,Acu-Link.com,2013-02-05 08:17:00,
2013-02-05 03:32:00,20.1,10.3,29.88,SW,225,2.2,-999.0,65,-99.99,,,0.00,Acu-Link.com,2013-02-05 08:32:00,
2013-02-05 03:47:00,20.3,10.4,29.87,South,180,0.0,-999.0,65,-99.99,,,0.00,Acu-Link.com,2013-02-05 08:47:00,
2013-02-05 04:02:00,20.3,10.8,29.87,ESE,112,1.7,-999.0,66,-99.99,,,0.00,Acu-Link.com,2013-02-05 09:02:00,
2013-02-05 04:18:00,20.1,10.6,29.86,SW,225,0.0,-999.0,66,-99.99,,,0.00,Acu-Link.com,2013-02-05 09:18:00,
2013-02-05 04:33:00,20.3,10.8,29.87,SW,225,0.0,-999.0,66,-99.99,,,0.00,Acu-Link.com,2013-02-05 09:33:00,
2013-02-05 04:48:00,20.3,11.5,29.87,SW,225,0.0,-999.0,68,-99.99,,,0.00,Acu-Link.com,2013-02-05 09:48:00,
2013-02-05 05:03:00,20.3,11.1,29.87,SW,225,0.0,-999.0,67,-99.99,,,0.00,Acu-Link.com,2013-02-05 10:03:00,
2013-02-05 05:18:00,20.3,11.5,29.87,SW,225,0.0,-999.0,68,-99.99,,,0.00,Acu-Link.com,2013-02-05 10:18:00,
2013-02-05 05:34:00,20.3,11.8,29.87,SSW,202,0.0,-999.0,69,-99.99,,,0.00,Acu-Link.com,2013-02-05 10:34:00,
2013-02-05 05:49:00,20.3,11.8,29.86,SSW,202,0.0,-999.0,69,-99.99,,,0.00,Acu-Link.com,2013-02-05 10:49:00,
2013-02-05 06:04:00,20.3,12.1,29.87,SSW,202,0.0,-999.0,70,-99.99,,,0.00,Acu-Link.com,2013-02-05 11:04:00,
2013-02-05 06:19:00,20.5,12.3,29.88,SSW,202,0.0,-999.0,70,-99.99,,,0.00,Acu-Link.com,2013-02-05 11:19:00,
2013-02-05 06:34:00,20.3,12.1,29.88,SSW,202,0.0,-999.0,70,-99.99,,,0.00,Acu-Link.com,2013-02-05 11:34:00,
2013-02-05 06:50:00,20.3,12.4,29.87,SSW,202,0.0,-999.0,71,-99.99,,,0.00,Acu-Link.com,2013-02-05 11:50:00,
2013-02-05 07:05:00,20.3,12.4,29.88,SW,225,0.0,-999.0,71,-99.99,,,0.00,Acu-Link.com,2013-02-05 12:05:00,
2013-02-05 07:20:00,20.5,12.9,29.89,SSW,202,2.2,-999.0,72,-99.99,,,0.00,Acu-Link.com,2013-02-05 12:20:00,
2013-02-05 07:35:00,20.7,12.5,29.90,SSW,202,1.1,-999.0,70,-99.99,,,0.00,Acu-Link.com,2013-02-05 12:35:00,
2013-02-05 07:51:00,20.8,12.6,29.92,SW,225,1.7,-999.0,70,-99.99,,,0.00,Acu-Link.com,2013-02-05 12:51:00,
2013-02-05 08:06:00,20.8,12.3,29.91,SW,225,0.0,-999.0,69,-99.99,,,0.00,Acu-Link.com,2013-02-05 13:06:00,
2013-02-05 08:21:00,21.4,11.8,29.91,SSW,202,0.0,-999.0,66,-99.99,,,0.00,Acu-Link.com,2013-02-05 13:21:00,
2013-02-05 08:40:00,21.7,12.1,29.92,SSW,202,0.0,-999.0,66,-99.99,,,0.00,Acu-Link.com,2013-02-05 13:40:00,
2013-02-05 08:56:00,22.1,11.8,29.92,SW,225,0.0,-999.0,64,-99.99,,,0.00,Acu-Link.com,2013-02-05 13:56:00,
2013-02-05 09:11:00,22.6,12.6,29.91,SSW,202,0.0,-999.0,65,-99.99,,,0.00,Acu-Link.com,2013-02-05 14:11:00,
2013-02-05 09:26:00,23.0,13.4,29.92,SW,225,0.0,-999.0,66,-99.99,,,0.00,Acu-Link.com,2013-02-05 14:26:00,
2013-02-05 09:42:00,23.2,13.9,29.92,SE,135,0.0,-999.0,67,-99.99,,,0.00,Acu-Link.com,2013-02-05 14:42:00,
2013-02-05 09:57:00,23.5,13.8,29.93,SSW,202,0.0,-999.0,66,-99.99,,,0.00,Acu-Link.com,2013-02-05 14:57:00,
2013-02-05 10:12:00,24.4,14.7,29.92,SSW,202,1.1,-999.0,66,-99.99,,,0.00,Acu-Link.com,2013-02-05 15:12:00,
2013-02-05 10:27:00,24.8,15.1,29.92,NE,45,2.2,-999.0,66,-99.99,,,0.00,Acu-Link.com,2013-02-05 15:27:00,
2013-02-05 10:42:00,24.6,15.6,29.92,SSW,202,0.0,-999.0,68,-99.99,,,0.00,Acu-Link.com,2013-02-05 15:42:00,
2013-02-05 10:58:00,25.9,16.8,29.91,SSW,202,2.7,-999.0,68,-99.99,,,0.00,Acu-Link.com,2013-02-05 15:58:00,
2013-02-05 11:13:00,25.7,15.6,29.91,SW,225,1.1,-999.0,65,-99.99,,,0.00,Acu-Link.com,2013-02-05 16:13:00,
2013-02-05 11:28:00,25.7,15.9,29.92,NNW,337,0.0,-999.0,66,-99.99,,,0.00,Acu-Link.com,2013-02-05 16:28:00,
2013-02-05 11:44:00,27.0,16.5,29.90,SE,135,0.0,-999.0,64,-99.99,,,0.00,Acu-Link.com,2013-02-05 16:44:00,
2013-02-05 11:59:00,27.1,16.2,29.89,SSE,157,0.0,-999.0,63,-99.99,,,0.00,Acu-Link.com,2013-02-05 16:59:00,
2013-02-05 12:14:00,26.2,16.1,29.90,WSW,247,2.2,-999.0,65,-99.99,,,0.00,Acu-Link.com,2013-02-05 17:14:00,
2013-02-05 12:29:00,26.4,16.3,29.89,SW,225,1.1,-999.0,65,-99.99,,,0.00,Acu-Link.com,2013-02-05 17:29:00,
2013-02-05 12:44:00,26.8,17.3,29.88,SSW,202,2.2,-999.0,67,-99.99,,,0.00,Acu-Link.com,2013-02-05 17:44:00,
2013-02-05 13:00:00,26.8,17.3,29.88,SW,225,2.2,-999.0,67,-99.99,,,0.00,Acu-Link.com,2013-02-05 18:00:00,
2013-02-05 13:15:00,27.5,17.7,29.87,East,90,0.0,-999.0,66,-99.99,,,0.00,Acu-Link.com,2013-02-05 18:15:00,
2013-02-05 13:30:00,27.1,18.0,29.87,NW,315,0.0,-999.0,68,-99.99,,,0.00,Acu-Link.com,2013-02-05 18:30:00,
2013-02-05 13:45:00,27.3,18.2,29.87,SE,135,0.0,-999.0,68,-99.99,,,0.00,Acu-Link.com,2013-02-05 18:45:00,
2013-02-05 14:00:00,27.5,18.3,29.87,SE,135,0.0,-999.0,68,-99.99,,,0.00,Acu-Link.com,2013-02-05 19:00:00,
2013-02-05 14:16:00,27.1,18.0,29.88,South,180,0.0,-999.0,68,-99.99,,,0.00,Acu-Link.com,2013-02-05 19:16:00,
2013-02-05 14:31:00,27.7,18.5,29.87,ENE,67,1.7,-999.0,68,-99.99,,,0.00,Acu-Link.com,2013-02-05 19:31:00,
2013-02-05 14:46:00,26.8,19.0,29.87,East,90,2.2,-999.0,72,-99.99,,,0.00,Acu-Link.com,2013-02-05 19:46:00,
2013-02-05 15:01:00,26.8,19.0,29.86,ENE,67,0.0,-999.0,72,-99.99,,,0.00,Acu-Link.com,2013-02-05 20:01:00,
2013-02-05 15:16:00,27.0,18.5,29.85,SSE,157,0.0,-999.0,70,-99.99,,,0.00,Acu-Link.com,2013-02-05 20:16:00,
2013-02-05 15:32:00,26.8,19.0,29.85,SE,135,2.2,-999.0,72,-99.99,,,0.00,Acu-Link.com,2013-02-05 20:32:00,
2013-02-05 15:47:00,26.8,18.7,29.84,SSW,202,0.0,-999.0,71,-99.99,,,0.00,Acu-Link.com,2013-02-05 20:47:00,
2013-02-05 16:02:00,26.2,18.1,29.84,ENE,67,1.7,-999.0,71,-99.99,,,0.00,Acu-Link.com,2013-02-05 21:02:00,
2013-02-05 16:17:00,26.1,19.0,29.85,South,180,0.0,-999.0,74,-99.99,,,0.00,Acu-Link.com,2013-02-05 21:17:00,
2013-02-05 16:33:00,25.9,18.8,29.85,SSE,157,0.0,-999.0,74,-99.99,,,0.00,Acu-Link.com,2013-02-05 21:33:00,
2013-02-05 16:48:00,25.5,18.4,29.85,East,90,0.0,-999.0,74,-99.99,,,0.00,Acu-Link.com,2013-02-05 21:48:00,
2013-02-05 17:03:00,25.2,18.4,29.86,SE,135,0.0,-999.0,75,-99.99,,,0.00,Acu-Link.com,2013-02-05 22:03:00,
2013-02-05 17:18:00,25.0,18.2,29.84,East,90,0.0,-999.0,75,-99.99,,,0.00,Acu-Link.com,2013-02-05 22:18:00,
2013-02-05 17:33:00,25.0,18.5,29.84,South,180,0.0,-999.0,76,-99.99,,,0.00,Acu-Link.com,2013-02-05 22:33:00,
2013-02-05 17:49:00,25.0,18.5,29.84,South,180,0.0,-999.0,76,-99.99,,,0.00,Acu-Link.com,2013-02-05 22:49:00,
2013-02-05 18:04:00,25.0,18.5,29.85,SE,135,0.0,-999.0,76,-99.99,,,0.00,Acu-Link.com,2013-02-05 23:04:00,
2013-02-05 18:19:00,24.8,18.3,29.85,East,90,0.0,-999.0,76,-99.99,,,0.00,Acu-Link.com,2013-02-05 23:19:00,
2013-02-05 18:34:00,24.8,18.9,29.85,SE,135,0.0,-999.0,78,-99.99,,,0.00,Acu-Link.com,2013-02-05 23:34:00,
2013-02-05 18:49:00,24.6,19.6,29.85,ESE,112,0.0,-999.0,81,-99.99,,,0.00,Acu-Link.com,2013-02-05 23:49:00,
2013-02-05 19:05:00,24.3,20.7,29.86,ESE,112,0.0,-999.0,86,-99.99,,,0.00,Acu-Link.com,2013-02-06 00:05:00,
2013-02-05 19:20:00,23.9,20.9,29.85,ESE,112,0.0,-999.0,88,-99.99,,,0.00,Acu-Link.com,2013-02-06 00:20:00,
2013-02-05 19:35:00,23.5,21.0,29.85,ENE,67,0.0,-999.0,90,-99.99,,,0.00,Acu-Link.com,2013-02-06 00:35:00,
2013-02-05 19:50:00,23.4,21.2,29.85,ENE,67,0.0,-999.0,91,-99.99,,,0.00,Acu-Link.com,2013-02-06 00:50:00,
2013-02-05 20:05:00,23.2,21.0,29.85,ENE,67,0.0,-999.0,91,-99.99,,,0.00,Acu-Link.com,2013-02-06 01:05:00,
2013-02-05 20:21:00,23.4,21.4,29.86,ENE,67,0.0,-999.0,92,-99.99,,,0.00,Acu-Link.com,2013-02-06 01:21:00,
2013-02-05 20:36:00,23.2,21.2,29.85,ENE,67,0.0,-999.0,92,-99.99,,,0.00,Acu-Link.com,2013-02-06 01:36:00,
2013-02-05 20:51:00,23.0,21.3,29.85,ENE,67,0.0,-999.0,93,-99.99,,,0.00,Acu-Link.com,2013-02-06 01:51:00,
2013-02-05 21:06:00,23.0,21.3,29.85,ENE,67,0.0,-999.0,93,-99.99,,,0.00,Acu-Link.com,2013-02-06 02:06:00,
2013-02-05 21:21:00,23.0,21.3,29.85,ENE,67,0.0,-999.0,93,-99.99,,,0.00,Acu-Link.com,2013-02-06 02:21:00,
2013-02-05 21:37:00,22.8,21.3,29.86,East,90,0.0,-999.0,94,-99.99,,,0.00,Acu-Link.com,2013-02-06 02:37:00,
2013-02-05 21:52:00,22.6,21.1,29.85,East,90,0.0,-999.0,94,-99.99,,,0.00,Acu-Link.com,2013-02-06 02:52:00,
2013-02-05 22:07:00,22.8,21.3,29.87,East,90,0.0,-999.0,94,-99.99,,,0.00,Acu-Link.com,2013-02-06 03:07:00,
2013-02-05 22:22:00,22.6,21.1,29.85,East,90,2.2,-999.0,94,-99.99,,,0.00,Acu-Link.com,2013-02-06 03:22:00,
2013-02-05 22:38:00,22.8,21.3,29.85,East,90,0.0,-999.0,94,-99.99,,,0.00,Acu-Link.com,2013-02-06 03:38:00,
2013-02-05 22:53:00,23.0,21.5,29.84,East,90,0.0,-999.0,94,-99.99,,,0.00,Acu-Link.com,2013-02-06 03:53:00,
2013-02-05 23:08:00,23.0,21.8,29.84,East,90,0.0,-999.0,95,-99.99,,,0.00,Acu-Link.com,2013-02-06 04:08:00,
2013-02-05 23:23:00,23.0,21.8,29.84,East,90,0.0,-999.0,95,-99.99,,,0.00,Acu-Link.com,2013-02-06 04:23:00,
2013-02-05 23:38:00,23.2,22.0,29.84,East,90,0.0,-999.0,95,-99.99,,,0.00,Acu-Link.com,2013-02-06 04:38:00,
2013-02-05 23:54:00,23.2,22.0,29.84,East,90,0.0,-999.0,95,-99.99,,,0.00,Acu-Link.com,2013-02-06 04:54:00,